Buckhorn, Texas
Current Conditions -  °F | °C
As of 9:55 AM on Sunday 21 Dec 2014 (Local Time) from K11R Reporting Station
Broken Clouds Broken Clouds  
Wind Chill: 52°   Ceiling: 2100
Heat Index: 52°   Visibility: 7mi
Dew Point: 49°   Wind: 0mph
Humidity: 92%   Direction: NA
Pressure: 30.13"   Gusts: NA
Location:  29.9944°N, 96.2595°W
Report Text: K11R 211555Z AUTO 00000KT 7SM SCT005 BKN021 11/10 A3013 RMK AO2 T01100097
Loading
Personal Weather Stations






























Interactive Weather Map New forecast layout! Learn more

10-Day Weather Forecast

Advertisements
Track Severe Weather on mobile